createdAt,value
2022-11-20T00:01:35.607Z,98808.13
2022-11-20T00:04:04.090Z,98816.78
2022-11-20T00:06:32.603Z,98806.31
2022-11-20T00:09:03.324Z,98807.19
2022-11-20T00:11:33.070Z,98809.75
2022-11-20T00:14:02.988Z,98810.59
2022-11-20T00:16:34.158Z,98805.47
2022-11-20T00:19:02.913Z,98815.09
2022-11-20T00:21:31.955Z,98811.63
2022-11-20T00:24:01.930Z,98801.25
2022-11-20T00:26:31.190Z,98806.47
2022-11-20T00:29:02.988Z,98799.56
2022-11-20T00:31:33.934Z,98802.16
2022-11-20T00:34:02.331Z,98802.25
2022-11-20T00:36:33.738Z,98808.34
2022-11-20T00:39:03.822Z,98806.66
2022-11-20T00:41:32.297Z,98796.25
2022-11-20T00:44:00.897Z,98803.13
2022-11-20T00:46:30.177Z,98803.06
2022-11-20T00:48:58.653Z,98798.75
2022-11-20T00:51:28.999Z,98794.47
2022-11-20T00:53:58.232Z,98791.91
2022-11-20T00:56:28.155Z,98790.16
2022-11-20T00:58:56.947Z,98797.94
2022-11-20T01:01:27.132Z,98798.81
2022-11-20T01:03:57.386Z,98796.22
2022-11-20T01:06:28.082Z,98790.16
2022-11-20T01:08:58.395Z,98797.06
2022-11-20T01:11:30.397Z,98784.09
2022-11-20T01:14:00.213Z,98788.44
2022-11-20T01:16:31.535Z,98781.44
2022-11-20T01:19:01.915Z,98783.19
2022-11-20T01:21:32.090Z,98780.63
2022-11-20T01:24:01.253Z,98768.50
2022-11-20T01:26:33.079Z,98767.59
2022-11-20T01:29:03.031Z,98770.22
2022-11-20T01:31:33.682Z,98767.66
2022-11-20T01:34:04.727Z,98769.44
2022-11-20T01:36:34.929Z,98759.84
2022-11-20T01:39:06.384Z,98757.31
2022-11-20T01:41:54.549Z,98761.63
2022-11-20T01:44:44.774Z,98767.59
2022-11-20T01:47:17.930Z,98769.28
2022-11-20T01:49:51.798Z,98775.19
2022-11-20T01:52:23.899Z,98777.81
2022-11-20T01:54:56.359Z,98776.06
2022-11-20T01:57:28.878Z,98780.31
2022-11-20T02:00:02.360Z,98789.88
2022-11-20T02:02:43.066Z,98776.81
2022-11-20T02:05:20.172Z,98787.25
2022-11-20T02:07:49.181Z,98773.34
2022-11-20T02:10:18.174Z,98777.72
2022-11-20T02:13:05.695Z,98776.88
2022-11-20T02:15:35.452Z,98773.41
2022-11-20T02:18:03.884Z,98771.63
2022-11-20T02:20:32.278Z,98769.00
2022-11-20T02:23:06.676Z,98764.59
2022-11-20T02:25:38.756Z,98765.41
2022-11-20T02:28:07.607Z,98762.81
2022-11-20T02:30:36.081Z,98767.16
2022-11-20T02:33:04.708Z,98769.78
2022-11-20T02:35:45.691Z,98760.19
2022-11-20T02:38:15.504Z,98751.50
2022-11-20T02:40:45.397Z,98757.59
2022-11-20T02:43:13.763Z,98754.13
2022-11-20T02:45:42.151Z,98747.19
2022-11-20T02:48:10.601Z,98750.75
2022-11-20T02:50:40.765Z,98733.41
2022-11-20T02:53:09.280Z,98745.59
2022-11-20T02:55:38.282Z,98729.19
2022-11-20T02:58:08.227Z,98739.63
2022-11-20T03:00:36.705Z,98746.47
2022-11-20T03:03:05.311Z,98733.47
2022-11-20T03:05:33.671Z,98733.50
2022-11-20T03:08:02.195Z,98738.63
2022-11-20T03:10:30.716Z,98735.06
2022-11-20T03:12:59.202Z,98736.75
2022-11-20T03:15:28.959Z,98734.81
2022-11-20T03:17:57.626Z,98730.50
2022-11-20T03:20:26.326Z,98742.59
2022-11-20T03:22:56.036Z,98742.63
2022-11-20T03:25:24.536Z,98743.44
2022-11-20T03:27:53.310Z,98744.31
2022-11-20T03:30:23.990Z,98744.31
2022-11-20T03:32:56.541Z,98744.41
2022-11-20T03:35:25.158Z,98739.97
2022-11-20T03:37:53.591Z,98738.22
2022-11-20T03:40:22.196Z,98744.25
2022-11-20T03:42:50.519Z,98737.25
2022-11-20T03:45:20.111Z,98731.19
2022-11-20T03:47:48.772Z,98730.25
2022-11-20T03:50:18.723Z,98725.94
2022-11-20T03:52:47.423Z,98724.13
2022-11-20T03:55:15.902Z,98724.94
2022-11-20T03:57:44.367Z,98719.63
2022-11-20T04:00:14.230Z,98705.66
2022-11-20T04:02:42.596Z,98709.25
2022-11-20T04:05:11.079Z,98711.00
2022-11-20T04:07:41.105Z,98716.16
2022-11-20T04:10:10.039Z,98716.09
2022-11-20T04:12:38.484Z,98712.47
2022-11-20T04:15:07.462Z,98704.75
2022-11-20T04:17:35.838Z,98709.97
2022-11-20T04:20:05.135Z,98709.97
2022-11-20T04:22:33.487Z,98705.59
2022-11-20T04:25:03.823Z,98715.19
2022-11-20T04:27:32.630Z,98721.19
2022-11-20T04:30:01.032Z,98724.72
2022-11-20T04:32:29.740Z,98717.66
2022-11-20T04:34:58.247Z,98718.47
2022-11-20T04:37:26.637Z,98715.97
2022-11-20T04:39:55.170Z,98722.13
2022-11-20T04:42:31.227Z,98715.19
2022-11-20T04:45:00.124Z,98720.47
2022-11-20T04:47:28.696Z,98717.97
2022-11-20T04:49:57.224Z,98712.69
2022-11-20T04:52:25.901Z,98725.88
2022-11-20T04:54:54.737Z,98725.97
2022-11-20T04:57:23.311Z,98732.16
2022-11-20T04:59:53.145Z,98730.47
2022-11-20T05:02:22.360Z,98732.31
2022-11-20T05:04:50.894Z,98731.34
2022-11-20T05:07:19.470Z,98737.47
2022-11-20T05:09:48.231Z,98744.50
2022-11-20T05:12:16.616Z,98748.91
2022-11-20T05:14:45.172Z,98742.94
2022-11-20T05:17:15.258Z,98748.16
2022-11-20T05:19:43.692Z,98744.75
2022-11-20T05:22:12.132Z,98755.16
2022-11-20T05:24:40.523Z,98748.28
2022-11-20T05:27:09.056Z,98744.78
2022-11-20T05:29:37.438Z,98737.88
2022-11-20T05:32:08.247Z,98736.13
2022-11-20T05:34:38.281Z,98735.28
2022-11-20T05:37:06.681Z,98733.59
2022-11-20T05:39:35.277Z,98721.44
2022-11-20T05:42:21.126Z,98723.97
2022-11-20T05:44:49.599Z,98724.03
2022-11-20T05:47:18.229Z,98724.84
2022-11-20T05:49:48.094Z,98715.31
2022-11-20T05:52:16.559Z,98711.91
2022-11-20T05:54:45.067Z,98725.75
2022-11-20T05:57:13.409Z,98718.78
2022-11-20T05:59:41.777Z,98722.19
2022-11-20T06:02:10.532Z,98720.53
2022-11-20T06:04:39.041Z,98722.13
2022-11-20T06:07:09.271Z,98721.41
2022-11-20T06:09:37.907Z,98727.50
2022-11-20T06:12:07.785Z,98720.41
2022-11-20T06:14:36.257Z,98734.34
2022-11-20T06:17:04.709Z,98728.22
2022-11-20T06:19:33.042Z,98733.44
2022-11-20T06:22:01.368Z,98732.50
2022-11-20T06:24:31.257Z,98732.56
2022-11-20T06:26:59.734Z,98727.38
2022-11-20T06:29:33.643Z,98734.28
2022-11-20T06:32:02.599Z,98736.84
2022-11-20T06:34:31.036Z,98738.63
2022-11-20T06:36:59.554Z,98742.97
2022-11-20T06:39:27.898Z,98741.31
2022-11-20T06:41:59.278Z,98745.63
2022-11-20T06:44:28.121Z,98742.97
2022-11-20T06:46:56.558Z,98752.41
2022-11-20T06:49:25.185Z,98749.91
2022-11-20T06:51:53.735Z,98755.97
2022-11-20T06:54:22.122Z,98758.56
2022-11-20T06:56:50.864Z,98754.25
2022-11-20T06:59:21.064Z,98754.34
2022-11-20T07:01:49.541Z,98750.72
2022-11-20T07:04:17.960Z,98752.50
2022-11-20T07:06:46.432Z,98755.91
2022-11-20T07:09:14.957Z,98747.25
2022-11-20T07:11:43.347Z,98747.16
2022-11-20T07:14:11.716Z,98754.13
2022-11-20T07:16:41.633Z,98745.50
2022-11-20T07:19:09.978Z,98750.63
2022-11-20T07:21:38.341Z,98749.72
2022-11-20T07:24:06.851Z,98743.56
2022-11-20T07:26:36.389Z,98754.00
2022-11-20T07:29:05.098Z,98743.56
2022-11-20T07:31:33.539Z,98737.44
2022-11-20T07:34:03.361Z,98740.09
2022-11-20T07:36:31.756Z,98735.72
2022-11-20T07:39:00.146Z,98735.69
2022-11-20T07:41:28.574Z,98726.03
2022-11-20T07:43:57.008Z,98723.38
2022-11-20T07:46:25.450Z,98730.34
2022-11-20T07:48:54.411Z,98733.81
2022-11-20T07:52:19.076Z,98728.53
2022-11-20T07:54:48.853Z,98731.09
2022-11-20T07:57:17.263Z,98722.25
2022-11-20T07:59:46.938Z,98722.41
2022-11-20T08:02:15.582Z,98720.59
2022-11-20T08:04:44.064Z,98733.53
2022-11-20T08:07:12.527Z,98728.22
2022-11-20T08:09:40.913Z,98729.09
2022-11-20T08:12:36.317Z,98728.13
2022-11-20T08:15:11.300Z,98732.56
2022-11-20T08:17:41.515Z,98729.09
2022-11-20T08:20:11.060Z,98733.41
2022-11-20T08:22:39.441Z,98722.22
2022-11-20T08:25:08.570Z,98729.09
2022-11-20T08:27:38.999Z,98722.03
2022-11-20T08:30:08.990Z,98729.78
2022-11-20T08:32:38.642Z,98730.66
2022-11-20T08:35:07.472Z,98728.06
2022-11-20T08:37:35.887Z,98721.91
2022-11-20T08:40:04.665Z,98733.22
2022-11-20T08:42:33.032Z,98728.78
2022-11-20T08:45:02.886Z,98735.56
2022-11-20T08:47:31.525Z,98730.31
2022-11-20T08:49:59.914Z,98726.09
2022-11-20T08:52:28.620Z,98717.34
2022-11-20T08:54:57.088Z,98721.59
2022-11-20T08:57:25.578Z,98715.22
2022-11-20T09:00:09.747Z,98700.16
2022-11-20T09:02:39.824Z,98695.50
2022-11-20T09:05:08.725Z,98708.25
2022-11-20T09:07:37.153Z,98702.09
2022-11-20T09:12:55.970Z,98702.00
2022-11-20T09:15:24.857Z,98706.38
2022-11-20T09:17:55.372Z,98704.78
2022-11-20T09:20:24.277Z,98704.78
2022-11-20T09:22:52.693Z,98702.06
2022-11-20T09:25:21.189Z,98706.72
2022-11-20T09:27:50.079Z,98700.56
2022-11-20T09:30:19.035Z,98697.22
2022-11-20T09:32:47.406Z,98692.72
2022-11-20T09:35:18.679Z,98690.09
2022-11-20T09:37:47.439Z,98686.66
2022-11-20T09:40:22.831Z,98675.94
2022-11-20T09:42:57.280Z,98672.63
2022-11-20T09:45:37.416Z,98674.22
2022-11-20T09:48:20.516Z,98673.09
2022-11-20T09:50:56.343Z,98674.75
2022-11-20T09:53:32.882Z,98670.66
2022-11-20T09:56:03.738Z,98664.28
2022-11-20T09:58:36.571Z,98674.44
2022-11-20T10:01:13.390Z,98668.28
2022-11-20T10:03:49.610Z,98667.13
2022-11-20T10:06:21.477Z,98659.59
2022-11-20T10:08:57.759Z,98661.16
2022-11-20T10:11:35.271Z,98661.34
2022-11-20T10:14:15.390Z,98655.16
2022-11-20T10:16:53.799Z,98653.47
2022-11-20T10:19:43.846Z,98655.31
2022-11-20T10:22:28.890Z,98644.16
2022-11-20T10:25:00.212Z,98643.28
2022-11-20T10:28:05.588Z,98634.03
2022-11-20T10:30:39.961Z,98626.00
2022-11-20T10:33:17.410Z,98624.00
2022-11-20T10:35:51.607Z,98630.34
2022-11-20T10:38:27.090Z,98627.34
2022-11-20T10:41:19.596Z,98616.44
2022-11-20T10:43:50.176Z,98617.63
2022-11-20T10:46:23.008Z,98602.81
2022-11-20T10:48:52.608Z,98598.09
2022-11-20T10:51:36.815Z,98595.50
2022-11-20T10:54:18.272Z,98591.19
2022-11-20T10:56:50.501Z,98586.56
2022-11-20T10:59:37.562Z,98580.44
2022-11-20T11:02:17.569Z,98579.44
2022-11-20T11:04:48.629Z,98560.69
2022-11-20T11:07:22.401Z,98556.81
2022-11-20T11:09:55.354Z,98559.63
2022-11-20T11:12:26.516Z,98556.94
2022-11-20T11:14:56.686Z,98549.47
2022-11-20T11:17:29.359Z,98545.00
2022-11-20T11:20:02.377Z,98536.53
2022-11-20T11:22:32.466Z,98537.94
2022-11-20T11:25:02.435Z,98542.31
2022-11-20T11:27:31.925Z,98532.69
2022-11-20T11:30:14.351Z,98529.75
2022-11-20T11:32:43.011Z,98523.13
2022-11-20T11:35:23.394Z,98522.31
2022-11-20T11:37:55.029Z,98521.28
2022-11-20T11:40:27.941Z,98517.00
2022-11-20T11:43:00.089Z,98512.75
2022-11-20T11:45:28.043Z,98508.63
2022-11-20T11:47:59.692Z,98507.63
2022-11-20T11:50:29.270Z,98497.91
2022-11-20T11:53:13.501Z,98495.22
2022-11-20T11:55:48.330Z,98493.75
2022-11-20T11:58:26.253Z,98488.16
2022-11-20T12:00:59.337Z,98489.38
2022-11-20T12:03:31.396Z,98483.09
2022-11-20T12:06:03.333Z,98470.50
2022-11-20T12:08:39.836Z,98481.75
2022-11-20T12:11:18.134Z,98477.31
2022-11-20T12:13:54.473Z,98464.38
2022-11-20T12:16:23.089Z,98466.06
2022-11-20T12:18:53.711Z,98461.56
2022-11-20T12:21:30.156Z,98459.16
2022-11-20T12:24:24.338Z,98454.09
2022-11-20T12:27:05.445Z,98454.31
2022-11-20T12:29:45.019Z,98449.78
2022-11-20T12:32:36.991Z,98447.81
2022-11-20T12:35:31.297Z,98450.41
2022-11-20T12:38:21.238Z,98442.63
2022-11-20T12:40:59.403Z,98431.03
2022-11-20T12:44:00.464Z,98431.19
2022-11-20T12:46:37.436Z,98423.97
2022-11-20T12:49:22.519Z,98424.66
2022-11-20T12:52:04.989Z,98417.38
2022-11-20T12:54:48.104Z,98425.16
2022-11-20T12:57:24.337Z,98413.72
2022-11-20T13:00:10.704Z,98406.81
2022-11-20T13:03:00.880Z,98401.22
2022-11-20T13:05:38.915Z,98400.69
2022-11-20T13:08:19.852Z,98387.59
2022-11-20T13:10:54.210Z,98389.63
2022-11-20T13:13:28.160Z,98389.41
2022-11-20T13:16:02.327Z,98379.16
2022-11-20T13:18:38.460Z,98381.75
2022-11-20T13:21:16.676Z,98376.53
2022-11-20T13:23:45.025Z,98370.41
2022-11-20T13:26:19.687Z,98372.63
2022-11-20T13:28:49.626Z,98363.78
2022-11-20T13:31:32.630Z,98378.31
2022-11-20T13:34:03.714Z,98368.00
2022-11-20T13:36:33.230Z,98363.09
2022-11-20T13:39:01.612Z,98355.88
2022-11-20T13:41:34.771Z,98350.34
2022-11-20T13:44:16.415Z,98350.34
2022-11-20T13:46:47.998Z,98338.13
2022-11-20T13:49:27.243Z,98328.88
2022-11-20T13:52:06.899Z,98335.94
2022-11-20T13:54:56.411Z,98332.47
2022-11-20T13:57:42.140Z,98316.16
2022-11-20T14:00:15.370Z,98319.94
2022-11-20T14:02:45.849Z,98318.56
2022-11-20T14:05:23.462Z,98310.13
2022-11-20T14:07:53.724Z,98309.13
2022-11-20T14:10:28.484Z,98318.03
2022-11-20T14:13:00.626Z,98315.69
2022-11-20T14:15:31.801Z,98309.44
2022-11-20T14:18:13.066Z,98302.34
2022-11-20T14:20:43.064Z,98308.09
2022-11-20T14:23:12.381Z,98298.16
2022-11-20T14:25:44.940Z,98289.63
2022-11-20T14:28:23.664Z,98287.25
2022-11-20T14:30:52.213Z,98282.84
2022-11-20T14:33:28.710Z,98278.56
2022-11-20T14:35:59.467Z,98274.06
2022-11-20T14:38:30.157Z,98267.97
2022-11-20T14:41:08.156Z,98261.09
2022-11-20T14:43:38.603Z,98259.16
2022-11-20T14:46:09.603Z,98251.34
2022-11-20T14:48:42.901Z,98244.41
2022-11-20T14:51:12.514Z,98229.66
2022-11-20T14:53:40.984Z,98227.19
2022-11-20T14:56:10.595Z,98228.16
2022-11-20T14:58:38.907Z,98222.94
2022-11-20T15:01:09.145Z,98217.09
2022-11-20T15:03:40.798Z,98211.22
2022-11-20T15:06:12.485Z,98203.19
2022-11-20T15:08:40.910Z,98195.25
2022-11-20T15:11:20.195Z,98197.34
2022-11-20T15:13:48.576Z,98187.13
2022-11-20T15:16:20.741Z,98185.63
2022-11-20T15:18:50.612Z,98189.75
2022-11-20T15:21:21.698Z,98181.06
2022-11-20T15:23:50.549Z,98173.34
2022-11-20T15:26:26.926Z,98180.34
2022-11-20T15:28:56.845Z,98177.78
2022-11-20T15:31:25.772Z,98171.94
2022-11-20T15:33:55.557Z,98163.22
2022-11-20T15:36:24.038Z,98160.69
2022-11-20T15:38:52.357Z,98167.63
2022-11-20T15:41:20.772Z,98155.59
2022-11-20T15:43:49.253Z,98161.47
2022-11-20T15:46:23.637Z,98157.94
2022-11-20T15:48:57.156Z,98152.97
2022-11-20T15:51:28.901Z,98145.09
2022-11-20T15:53:58.015Z,98142.47
2022-11-20T15:56:27.059Z,98147.63
2022-11-20T15:58:55.462Z,98137.31
2022-11-20T16:01:24.469Z,98136.50
2022-11-20T16:03:52.935Z,98122.75
2022-11-20T16:06:26.405Z,98120.78
2022-11-20T16:08:54.940Z,98122.53
2022-11-20T16:11:23.303Z,98112.91
2022-11-20T16:14:09.162Z,98114.69
2022-11-20T16:16:41.391Z,98106.72
2022-11-20T16:19:12.309Z,98113.59
2022-11-20T16:21:43.189Z,98098.69
2022-11-20T16:24:13.746Z,98096.78
2022-11-20T16:26:42.443Z,98086.44
2022-11-20T16:29:11.560Z,98086.31
2022-11-20T16:31:40.120Z,98094.13
2022-11-20T16:34:12.356Z,98094.00
2022-11-20T16:36:42.937Z,98080.06
2022-11-20T16:39:11.721Z,98086.88
2022-11-20T16:41:40.416Z,98086.84
2022-11-20T16:44:10.668Z,98085.03
2022-11-20T16:46:40.572Z,98084.94
2022-11-20T16:49:13.863Z,98095.50
2022-11-20T16:51:43.787Z,98092.69
2022-11-20T16:54:15.182Z,98083.72
2022-11-20T16:56:47.807Z,98081.88
2022-11-20T16:59:16.231Z,98071.50
2022-11-20T17:01:44.585Z,98053.94
2022-11-20T17:04:13.057Z,98055.69
2022-11-20T17:06:45.172Z,98085.22
2022-11-20T17:09:13.945Z,98079.94
2022-11-20T17:11:42.313Z,98070.34
2022-11-20T17:14:11.885Z,98068.53
2022-11-20T17:16:40.608Z,98073.63
2022-11-20T17:19:08.923Z,98074.47
2022-11-20T17:21:38.019Z,98069.22
2022-11-20T17:24:10.118Z,98065.69
2022-11-20T17:26:39.905Z,98064.63
2022-11-20T17:29:11.427Z,98075.75
2022-11-20T17:31:40.278Z,98073.19
2022-11-20T17:34:11.869Z,98068.94
2022-11-20T17:36:45.189Z,98071.25
2022-11-20T17:39:16.511Z,98080.75
2022-11-20T17:41:45.060Z,98075.44
2022-11-20T17:44:13.822Z,98080.66
2022-11-20T17:46:42.279Z,98077.94
2022-11-20T17:49:10.627Z,98066.22
2022-11-20T17:51:38.991Z,98079.22
2022-11-20T17:54:08.286Z,98074.81
2022-11-20T17:56:55.463Z,98079.88
2022-11-20T17:59:23.880Z,98079.97
2022-11-20T18:01:52.241Z,98068.72
2022-11-20T18:04:20.778Z,98076.56
2022-11-20T18:06:49.119Z,98072.50
2022-11-20T18:09:17.608Z,98089.88
2022-11-20T18:11:47.273Z,98085.47
2022-11-20T18:14:34.335Z,98092.16
2022-11-20T18:17:04.324Z,98073.19
2022-11-20T18:19:38.762Z,98085.22
2022-11-20T18:22:09.803Z,98087.72
2022-11-20T18:24:39.317Z,98083.41
2022-11-20T18:27:14.491Z,98079.69
2022-11-20T18:29:42.820Z,98080.72
2022-11-20T18:32:11.311Z,98076.31
2022-11-20T18:34:39.638Z,98074.50
2022-11-20T18:37:09.689Z,98076.41
2022-11-20T18:39:38.081Z,98066.97
2022-11-20T18:42:24.110Z,98072.31
2022-11-20T18:44:54.849Z,98065.19
2022-11-20T18:47:25.489Z,98060.03
2022-11-20T18:49:57.060Z,98063.69
2022-11-20T18:52:27.642Z,98075.31
2022-11-20T18:54:56.715Z,98072.84
2022-11-20T18:57:27.047Z,98076.16
2022-11-20T19:00:02.200Z,98059.59
2022-11-20T19:02:40.577Z,98061.69
2022-11-20T19:05:10.126Z,98077.31
2022-11-20T19:07:38.618Z,98064.13
2022-11-20T19:10:08.006Z,98064.47
2022-11-20T19:12:36.354Z,98081.16
2022-11-20T19:15:06.989Z,98062.19
2022-11-20T19:17:35.463Z,98080.00
2022-11-20T19:20:03.936Z,98086.19
2022-11-20T19:22:32.275Z,98086.06
2022-11-20T19:25:00.644Z,98084.38
2022-11-20T19:27:29.085Z,98081.69
2022-11-20T19:30:02.837Z,98087.56
2022-11-20T19:32:32.917Z,98088.47
2022-11-20T19:35:01.357Z,98099.94
2022-11-20T19:37:29.915Z,98096.44
2022-11-20T19:39:59.606Z,98094.75
2022-11-20T19:42:28.071Z,98084.63
2022-11-20T19:44:58.018Z,98098.41
2022-11-20T19:47:46.099Z,98089.66
2022-11-20T19:50:16.871Z,98098.81
2022-11-20T19:52:45.238Z,98094.69
2022-11-20T19:55:13.921Z,98106.28
2022-11-20T19:57:42.352Z,98093.66
2022-11-20T20:00:12.211Z,98096.72
2022-11-20T20:02:40.726Z,98107.16
2022-11-20T20:05:09.352Z,98109.94
2022-11-20T20:07:40.088Z,98116.22
2022-11-20T20:10:09.717Z,98113.63
2022-11-20T20:12:38.041Z,98111.84
2022-11-20T20:15:07.726Z,98122.31
2022-11-20T20:17:36.139Z,98113.81
2022-11-20T20:20:05.112Z,98117.63
2022-11-20T20:22:33.393Z,98132.91
2022-11-20T20:25:03.043Z,98114.50
2022-11-20T20:27:32.063Z,98116.09
2022-11-20T20:30:00.415Z,98129.00
2022-11-20T20:32:28.822Z,98137.34
2022-11-20T20:34:57.158Z,98128.75
2022-11-20T20:37:26.000Z,98131.47
2022-11-20T20:39:54.521Z,98134.81
2022-11-20T20:42:24.264Z,98138.38
2022-11-20T20:45:07.625Z,98133.91
2022-11-20T20:47:37.781Z,98143.78
2022-11-20T20:50:07.851Z,98135.75
2022-11-20T20:52:36.626Z,98143.19
2022-11-20T20:55:05.555Z,98148.31
2022-11-20T20:57:35.261Z,98140.47
2022-11-20T21:00:05.918Z,98142.47
2022-11-20T21:02:34.421Z,98134.50
2022-11-20T21:05:03.745Z,98134.13
2022-11-20T21:07:32.213Z,98134.00
2022-11-20T21:10:00.602Z,98140.28
2022-11-20T21:12:28.917Z,98133.16
2022-11-20T21:14:58.595Z,98146.19
2022-11-20T21:17:28.037Z,98152.31
2022-11-20T21:19:56.428Z,98143.16
2022-11-20T21:22:23.762Z,98150.06
2022-11-20T21:24:52.153Z,98141.53
2022-11-20T21:27:20.516Z,98137.28
2022-11-20T21:29:48.908Z,98151.06
2022-11-20T21:32:18.722Z,98144.44
2022-11-20T21:34:47.055Z,98135.88
2022-11-20T21:37:15.414Z,98146.50
2022-11-20T21:39:50.592Z,98154.50
2022-11-20T21:42:19.100Z,98142.16
2022-11-20T21:44:47.869Z,98153.69
2022-11-20T21:47:16.212Z,98159.16
2022-11-20T21:49:45.978Z,98153.78
2022-11-20T21:52:14.569Z,98151.50
2022-11-20T21:54:42.913Z,98155.44
2022-11-20T21:57:11.203Z,98147.63
2022-11-20T21:59:39.869Z,98156.28
2022-11-20T22:02:08.890Z,98158.84
2022-11-20T22:04:37.317Z,98150.34
2022-11-20T22:07:07.819Z,98159.72
2022-11-20T22:09:36.387Z,98153.38
2022-11-20T22:12:05.411Z,98163.59
2022-11-20T22:14:32.783Z,98168.66
2022-11-20T22:17:01.112Z,98168.38
2022-11-20T22:19:29.526Z,98164.00
2022-11-20T22:21:58.005Z,98164.91
2022-11-20T22:24:27.897Z,98170.38
2022-11-20T22:26:56.472Z,98157.94
2022-11-20T22:29:24.780Z,98164.78
2022-11-20T22:31:53.846Z,98162.16
2022-11-20T22:34:22.557Z,98168.16
2022-11-20T22:36:51.233Z,98153.91
2022-11-20T22:39:21.796Z,98166.19
2022-11-20T22:41:51.471Z,98170.53
2022-11-20T22:44:19.873Z,98167.97
2022-11-20T22:46:48.269Z,98179.66
2022-11-20T22:49:16.636Z,98178.72
2022-11-20T22:51:45.003Z,98188.22
2022-11-20T22:54:14.327Z,98192.69
2022-11-20T22:56:42.838Z,98181.34
2022-11-20T22:59:12.674Z,98183.72
2022-11-20T23:01:41.020Z,98187.41
2022-11-20T23:04:11.726Z,98198.72
2022-11-20T23:06:40.382Z,98184.34
2022-11-20T23:09:09.848Z,98191.00
2022-11-20T23:11:38.801Z,98196.38
2022-11-20T23:14:08.936Z,98209.41
2022-11-20T23:16:38.806Z,98190.53
2022-11-20T23:19:09.058Z,98210.34
2022-11-20T23:21:39.373Z,98202.44
2022-11-20T23:24:08.803Z,98211.19
2022-11-20T23:26:39.224Z,98206.91
2022-11-20T23:29:07.686Z,98211.47
2022-11-20T23:31:37.877Z,98199.34
2022-11-20T23:34:06.344Z,98202.88
2022-11-20T23:36:34.824Z,98207.22
2022-11-20T23:39:03.238Z,98205.03
2022-11-20T23:41:32.148Z,98209.00
2022-11-20T23:44:00.598Z,98225.59
2022-11-20T23:46:28.988Z,98214.69
2022-11-20T23:48:58.696Z,98216.41
2022-11-20T23:51:27.197Z,98230.59
2022-11-20T23:53:58.310Z,98225.13
2022-11-20T23:56:28.895Z,98221.09
2022-11-20T23:58:57.324Z,98215.34
